sensor_id;sensor_type;location;lat;lon;timestamp;P1;durP1;ratioP1;P2;durP2;ratioP2
70588;SDS011;58152;49.202;18.744;2023-03-31T00:00:46;23.52;;;20.30;;
70588;SDS011;58152;49.202;18.744;2023-03-31T00:03:16;23.67;;;19.75;;
70588;SDS011;58152;49.202;18.744;2023-03-31T00:05:45;22.48;;;19.63;;
70588;SDS011;58152;49.202;18.744;2023-03-31T00:08:12;25.98;;;19.08;;
70588;SDS011;58152;49.202;18.744;2023-03-31T00:10:41;26.15;;;20.73;;
70588;SDS011;58152;49.202;18.744;2023-03-31T00:13:09;22.02;;;18.70;;
70588;SDS011;58152;49.202;18.744;2023-03-31T00:15:35;26.55;;;19.23;;
70588;SDS011;58152;49.202;18.744;2023-03-31T00:18:00;23.48;;;19.08;;
70588;SDS011;58152;49.202;18.744;2023-03-31T00:20:26;25.55;;;21.05;;
70588;SDS011;58152;49.202;18.744;2023-03-31T00:22:52;24.17;;;18.67;;
70588;SDS011;58152;49.202;18.744;2023-03-31T00:25:18;22.00;;;18.48;;
70588;SDS011;58152;49.202;18.744;2023-03-31T00:27:44;23.65;;;20.38;;
70588;SDS011;58152;49.202;18.744;2023-03-31T00:30:13;24.73;;;20.38;;
70588;SDS011;58152;49.202;18.744;2023-03-31T00:32:39;23.88;;;19.27;;
70588;SDS011;58152;49.202;18.744;2023-03-31T00:35:05;25.20;;;19.50;;
70588;SDS011;58152;49.202;18.744;2023-03-31T00:37:31;24.65;;;20.25;;
70588;SDS011;58152;49.202;18.744;2023-03-31T00:39:58;22.13;;;19.30;;
70588;SDS011;58152;49.202;18.744;2023-03-31T00:42:24;27.38;;;21.45;;
70588;SDS011;58152;49.202;18.744;2023-03-31T00:47:37;23.02;;;19.63;;
70588;SDS011;58152;49.202;18.744;2023-03-31T00:50:12;23.27;;;20.05;;
70588;SDS011;58152;49.202;18.744;2023-03-31T00:52:42;25.23;;;19.90;;
70588;SDS011;58152;49.202;18.744;2023-03-31T00:55:12;24.20;;;19.70;;
70588;SDS011;58152;49.202;18.744;2023-03-31T00:57:41;23.75;;;19.95;;
70588;SDS011;58152;49.202;18.744;2023-03-31T01:00:10;23.40;;;18.88;;
70588;SDS011;58152;49.202;18.744;2023-03-31T01:02:51;24.20;;;18.85;;
70588;SDS011;58152;49.202;18.744;2023-03-31T01:05:26;24.40;;;20.08;;
70588;SDS011;58152;49.202;18.744;2023-03-31T01:07:56;26.27;;;19.80;;
70588;SDS011;58152;49.202;18.744;2023-03-31T01:10:24;24.98;;;18.27;;
70588;SDS011;58152;49.202;18.744;2023-03-31T01:12:51;23.27;;;19.55;;
70588;SDS011;58152;49.202;18.744;2023-03-31T01:15:19;25.65;;;21.73;;
70588;SDS011;58152;49.202;18.744;2023-03-31T01:17:45;27.42;;;22.35;;
70588;SDS011;58152;49.202;18.744;2023-03-31T01:28:20;25.08;;;21.23;;
70588;SDS011;58152;49.202;18.744;2023-03-31T01:31:07;28.40;;;21.15;;
70588;SDS011;58152;49.202;18.744;2023-03-31T01:40:03;24.65;;;20.38;;
70588;SDS011;58152;49.202;18.744;2023-03-31T01:42:35;24.70;;;19.90;;
70588;SDS011;58152;49.202;18.744;2023-03-31T01:48:20;24.30;;;19.13;;
70588;SDS011;58152;49.202;18.744;2023-03-31T01:51:13;25.25;;;19.75;;
70588;SDS011;58152;49.202;18.744;2023-03-31T01:53:52;23.27;;;20.27;;
70588;SDS011;58152;49.202;18.744;2023-03-31T01:56:30;27.50;;;21.95;;
70588;SDS011;58152;49.202;18.744;2023-03-31T01:58:58;28.05;;;21.23;;
70588;SDS011;58152;49.202;18.744;2023-03-31T02:01:55;28.58;;;23.02;;
70588;SDS011;58152;49.202;18.744;2023-03-31T02:04:47;30.85;;;22.00;;
70588;SDS011;58152;49.202;18.744;2023-03-31T02:07:23;27.33;;;21.17;;
70588;SDS011;58152;49.202;18.744;2023-03-31T02:09:56;27.00;;;20.42;;
70588;SDS011;58152;49.202;18.744;2023-03-31T02:12:27;26.48;;;21.73;;
70588;SDS011;58152;49.202;18.744;2023-03-31T02:14:57;26.73;;;21.50;;
70588;SDS011;58152;49.202;18.744;2023-03-31T02:17:25;28.17;;;20.90;;
70588;SDS011;58152;49.202;18.744;2023-03-31T02:19:57;27.35;;;21.23;;
70588;SDS011;58152;49.202;18.744;2023-03-31T02:22:26;26.88;;;22.00;;
70588;SDS011;58152;49.202;18.744;2023-03-31T02:24:57;25.08;;;20.23;;
70588;SDS011;58152;49.202;18.744;2023-03-31T02:27:27;27.35;;;21.55;;
70588;SDS011;58152;49.202;18.744;2023-03-31T02:29:58;24.17;;;19.45;;
70588;SDS011;58152;49.202;18.744;2023-03-31T02:34:56;25.75;;;20.58;;
70588;SDS011;58152;49.202;18.744;2023-03-31T02:37:23;30.63;;;23.40;;
70588;SDS011;58152;49.202;18.744;2023-03-31T02:39:49;25.30;;;21.23;;
70588;SDS011;58152;49.202;18.744;2023-03-31T02:42:18;26.05;;;21.40;;
70588;SDS011;58152;49.202;18.744;2023-03-31T02:44:44;23.75;;;19.85;;
70588;SDS011;58152;49.202;18.744;2023-03-31T02:47:13;25.50;;;20.73;;
70588;SDS011;58152;49.202;18.744;2023-03-31T02:49:42;24.48;;;19.25;;
70588;SDS011;58152;49.202;18.744;2023-03-31T02:55:02;27.17;;;20.98;;
70588;SDS011;58152;49.202;18.744;2023-03-31T02:58:08;23.20;;;19.08;;
70588;SDS011;58152;49.202;18.744;2023-03-31T03:12:05;25.65;;;20.50;;
70588;SDS011;58152;49.202;18.744;2023-03-31T03:14:47;25.80;;;20.03;;
70588;SDS011;58152;49.202;18.744;2023-03-31T03:17:21;26.17;;;20.13;;
70588;SDS011;58152;49.202;18.744;2023-03-31T03:19:55;23.02;;;19.27;;
70588;SDS011;58152;49.202;18.744;2023-03-31T03:22:24;25.40;;;20.25;;
70588;SDS011;58152;49.202;18.744;2023-03-31T03:24:50;32.05;;;27.63;;
70588;SDS011;58152;49.202;18.744;2023-03-31T03:27:17;38.83;;;30.15;;
70588;SDS011;58152;49.202;18.744;2023-03-31T03:29:43;36.38;;;28.95;;
70588;SDS011;58152;49.202;18.744;2023-03-31T03:32:09;72.63;;;52.70;;
70588;SDS011;58152;49.202;18.744;2023-03-31T03:34:35;203.68;;;136.82;;
70588;SDS011;58152;49.202;18.744;2023-03-31T03:37:01;146.40;;;99.32;;
70588;SDS011;58152;49.202;18.744;2023-03-31T03:39:27;80.90;;;56.65;;
70588;SDS011;58152;49.202;18.744;2023-03-31T03:41:52;50.17;;;37.70;;
70588;SDS011;58152;49.202;18.744;2023-03-31T03:44:18;39.15;;;29.88;;
70588;SDS011;58152;49.202;18.744;2023-03-31T03:46:43;31.73;;;24.58;;
70588;SDS011;58152;49.202;18.744;2023-03-31T03:49:09;29.95;;;24.08;;
70588;SDS011;58152;49.202;18.744;2023-03-31T03:51:34;32.83;;;24.52;;
70588;SDS011;58152;49.202;18.744;2023-03-31T03:54:00;28.67;;;23.80;;
70588;SDS011;58152;49.202;18.744;2023-03-31T03:56:25;30.55;;;23.92;;
70588;SDS011;58152;49.202;18.744;2023-03-31T03:58:51;27.17;;;22.98;;
70588;SDS011;58152;49.202;18.744;2023-03-31T04:01:17;27.15;;;21.52;;
70588;SDS011;58152;49.202;18.744;2023-03-31T04:03:43;27.90;;;22.02;;
70588;SDS011;58152;49.202;18.744;2023-03-31T04:06:08;29.35;;;22.05;;
70588;SDS011;58152;49.202;18.744;2023-03-31T04:08:34;28.30;;;22.65;;
70588;SDS011;58152;49.202;18.744;2023-03-31T04:11:01;25.17;;;21.30;;
70588;SDS011;58152;49.202;18.744;2023-03-31T04:13:26;26.33;;;21.45;;
70588;SDS011;58152;49.202;18.744;2023-03-31T04:15:52;27.60;;;21.83;;
70588;SDS011;58152;49.202;18.744;2023-03-31T04:18:17;28.95;;;22.02;;
70588;SDS011;58152;49.202;18.744;2023-03-31T04:20:50;28.05;;;23.02;;
70588;SDS011;58152;49.202;18.744;2023-03-31T04:23:37;25.50;;;20.77;;
70588;SDS011;58152;49.202;18.744;2023-03-31T04:26:07;28.67;;;22.52;;
70588;SDS011;58152;49.202;18.744;2023-03-31T04:28:34;24.63;;;20.17;;
70588;SDS011;58152;49.202;18.744;2023-03-31T04:31:00;26.77;;;20.33;;
70588;SDS011;58152;49.202;18.744;2023-03-31T04:33:27;26.60;;;20.83;;
70588;SDS011;58152;49.202;18.744;2023-03-31T04:35:53;23.20;;;18.98;;
70588;SDS011;58152;49.202;18.744;2023-03-31T04:38:19;25.05;;;20.80;;
70588;SDS011;58152;49.202;18.744;2023-03-31T04:40:47;24.10;;;20.48;;
70588;SDS011;58152;49.202;18.744;2023-03-31T04:43:15;24.55;;;20.00;;
70588;SDS011;58152;49.202;18.744;2023-03-31T04:45:41;26.25;;;21.02;;
70588;SDS011;58152;49.202;18.744;2023-03-31T04:48:07;23.20;;;20.00;;
70588;SDS011;58152;49.202;18.744;2023-03-31T04:50:33;22.23;;;19.25;;
70588;SDS011;58152;49.202;18.744;2023-03-31T04:52:59;26.75;;;20.05;;
70588;SDS011;58152;49.202;18.744;2023-03-31T04:55:24;23.63;;;20.33;;
70588;SDS011;58152;49.202;18.744;2023-03-31T04:57:51;24.73;;;21.63;;
70588;SDS011;58152;49.202;18.744;2023-03-31T05:00:16;26.02;;;21.88;;
70588;SDS011;58152;49.202;18.744;2023-03-31T05:02:42;26.52;;;21.15;;
70588;SDS011;58152;49.202;18.744;2023-03-31T05:05:08;27.73;;;20.83;;
70588;SDS011;58152;49.202;18.744;2023-03-31T05:07:35;29.58;;;22.27;;
70588;SDS011;58152;49.202;18.744;2023-03-31T05:10:00;28.52;;;22.80;;
70588;SDS011;58152;49.202;18.744;2023-03-31T05:12:25;29.33;;;20.98;;
70588;SDS011;58152;49.202;18.744;2023-03-31T05:14:51;26.52;;;20.52;;
70588;SDS011;58152;49.202;18.744;2023-03-31T05:17:16;24.52;;;20.80;;
70588;SDS011;58152;49.202;18.744;2023-03-31T05:19:42;30.45;;;24.08;;
70588;SDS011;58152;49.202;18.744;2023-03-31T05:22:08;29.85;;;23.95;;
70588;SDS011;58152;49.202;18.744;2023-03-31T05:24:34;27.48;;;23.13;;
70588;SDS011;58152;49.202;18.744;2023-03-31T05:27:00;28.85;;;24.25;;
70588;SDS011;58152;49.202;18.744;2023-03-31T05:29:25;29.83;;;24.95;;
70588;SDS011;58152;49.202;18.744;2023-03-31T05:31:51;27.77;;;24.38;;
70588;SDS011;58152;49.202;18.744;2023-03-31T05:34:18;28.27;;;23.52;;
70588;SDS011;58152;49.202;18.744;2023-03-31T05:36:43;24.15;;;20.40;;
70588;SDS011;58152;49.202;18.744;2023-03-31T05:39:12;25.50;;;20.50;;
70588;SDS011;58152;49.202;18.744;2023-03-31T05:41:38;25.38;;;19.95;;
70588;SDS011;58152;49.202;18.744;2023-03-31T05:44:04;22.73;;;18.45;;
70588;SDS011;58152;49.202;18.744;2023-03-31T05:46:29;20.45;;;18.08;;
70588;SDS011;58152;49.202;18.744;2023-03-31T05:48:55;21.30;;;17.70;;
70588;SDS011;58152;49.202;18.744;2023-03-31T05:51:21;21.70;;;17.67;;
70588;SDS011;58152;49.202;18.744;2023-03-31T05:53:47;21.63;;;17.40;;
70588;SDS011;58152;49.202;18.744;2023-03-31T05:56:12;23.55;;;18.73;;
70588;SDS011;58152;49.202;18.744;2023-03-31T05:58:38;22.90;;;18.67;;
70588;SDS011;58152;49.202;18.744;2023-03-31T06:01:07;23.77;;;19.05;;
70588;SDS011;58152;49.202;18.744;2023-03-31T06:03:35;21.40;;;18.90;;
70588;SDS011;58152;49.202;18.744;2023-03-31T06:06:03;21.27;;;17.25;;
70588;SDS011;58152;49.202;18.744;2023-03-31T06:08:30;24.27;;;19.30;;
70588;SDS011;58152;49.202;18.744;2023-03-31T06:10:56;24.95;;;20.33;;
70588;SDS011;58152;49.202;18.744;2023-03-31T06:13:22;23.20;;;20.00;;
70588;SDS011;58152;49.202;18.744;2023-03-31T06:15:52;26.05;;;21.02;;
70588;SDS011;58152;49.202;18.744;2023-03-31T06:18:21;24.05;;;20.77;;
70588;SDS011;58152;49.202;18.744;2023-03-31T06:20:46;25.00;;;20.73;;
70588;SDS011;58152;49.202;18.744;2023-03-31T06:23:12;24.95;;;21.70;;
70588;SDS011;58152;49.202;18.744;2023-03-31T06:25:37;23.65;;;20.27;;
70588;SDS011;58152;49.202;18.744;2023-03-31T06:28:03;23.88;;;20.48;;
70588;SDS011;58152;49.202;18.744;2023-03-31T06:30:30;24.02;;;20.17;;
70588;SDS011;58152;49.202;18.744;2023-03-31T06:32:56;24.50;;;20.33;;
70588;SDS011;58152;49.202;18.744;2023-03-31T06:35:21;28.10;;;21.95;;
70588;SDS011;58152;49.202;18.744;2023-03-31T06:37:46;27.80;;;21.15;;
70588;SDS011;58152;49.202;18.744;2023-03-31T06:40:12;24.45;;;20.92;;
70588;SDS011;58152;49.202;18.744;2023-03-31T06:42:37;23.90;;;19.77;;
70588;SDS011;58152;49.202;18.744;2023-03-31T06:45:03;24.13;;;20.10;;
70588;SDS011;58152;49.202;18.744;2023-03-31T06:47:28;26.90;;;19.30;;
70588;SDS011;58152;49.202;18.744;2023-03-31T06:49:54;25.83;;;20.02;;
70588;SDS011;58152;49.202;18.744;2023-03-31T06:52:19;24.42;;;20.50;;
70588;SDS011;58152;49.202;18.744;2023-03-31T06:54:45;25.63;;;20.10;;
70588;SDS011;58152;49.202;18.744;2023-03-31T06:57:10;24.80;;;20.30;;
70588;SDS011;58152;49.202;18.744;2023-03-31T06:59:36;22.35;;;18.65;;
70588;SDS011;58152;49.202;18.744;2023-03-31T07:02:02;25.67;;;20.58;;
70588;SDS011;58152;49.202;18.744;2023-03-31T07:04:28;25.48;;;20.90;;
70588;SDS011;58152;49.202;18.744;2023-03-31T07:06:53;24.55;;;19.52;;
70588;SDS011;58152;49.202;18.744;2023-03-31T07:09:19;23.92;;;19.98;;
70588;SDS011;58152;49.202;18.744;2023-03-31T07:11:47;27.40;;;22.15;;
70588;SDS011;58152;49.202;18.744;2023-03-31T07:14:13;26.13;;;20.83;;
70588;SDS011;58152;49.202;18.744;2023-03-31T07:16:38;26.85;;;21.23;;
70588;SDS011;58152;49.202;18.744;2023-03-31T07:19:05;24.48;;;19.45;;
70588;SDS011;58152;49.202;18.744;2023-03-31T07:21:34;28.20;;;22.92;;
70588;SDS011;58152;49.202;18.744;2023-03-31T07:23:59;31.23;;;25.45;;
70588;SDS011;58152;49.202;18.744;2023-03-31T07:26:25;38.45;;;31.15;;
70588;SDS011;58152;49.202;18.744;2023-03-31T07:28:51;38.30;;;28.98;;
70588;SDS011;58152;49.202;18.744;2023-03-31T07:31:16;30.02;;;23.15;;
70588;SDS011;58152;49.202;18.744;2023-03-31T07:33:42;28.52;;;22.15;;
70588;SDS011;58152;49.202;18.744;2023-03-31T07:36:08;28.42;;;23.38;;
70588;SDS011;58152;49.202;18.744;2023-03-31T07:38:34;26.52;;;20.98;;
70588;SDS011;58152;49.202;18.744;2023-03-31T07:41:00;25.85;;;21.17;;
70588;SDS011;58152;49.202;18.744;2023-03-31T07:43:25;24.27;;;19.73;;
70588;SDS011;58152;49.202;18.744;2023-03-31T07:45:51;23.30;;;18.15;;
70588;SDS011;58152;49.202;18.744;2023-03-31T07:48:16;23.48;;;19.85;;
70588;SDS011;58152;49.202;18.744;2023-03-31T07:50:42;20.88;;;17.33;;
70588;SDS011;58152;49.202;18.744;2023-03-31T07:53:07;23.35;;;18.10;;
70588;SDS011;58152;49.202;18.744;2023-03-31T07:55:33;20.08;;;16.65;;
70588;SDS011;58152;49.202;18.744;2023-03-31T07:57:58;20.73;;;16.55;;
70588;SDS011;58152;49.202;18.744;2023-03-31T08:00:24;18.83;;;15.73;;
70588;SDS011;58152;49.202;18.744;2023-03-31T08:02:50;19.80;;;16.02;;
70588;SDS011;58152;49.202;18.744;2023-03-31T08:05:16;17.70;;;15.25;;
70588;SDS011;58152;49.202;18.744;2023-03-31T08:07:44;19.38;;;15.73;;
70588;SDS011;58152;49.202;18.744;2023-03-31T08:10:12;16.77;;;14.18;;
70588;SDS011;58152;49.202;18.744;2023-03-31T08:12:49;17.67;;;14.52;;
70588;SDS011;58152;49.202;18.744;2023-03-31T08:15:15;18.08;;;15.52;;
70588;SDS011;58152;49.202;18.744;2023-03-31T08:17:40;17.55;;;15.18;;
70588;SDS011;58152;49.202;18.744;2023-03-31T08:20:06;18.00;;;14.20;;
70588;SDS011;58152;49.202;18.744;2023-03-31T08:22:33;16.17;;;14.43;;
70588;SDS011;58152;49.202;18.744;2023-03-31T08:24:58;19.90;;;14.95;;
70588;SDS011;58152;49.202;18.744;2023-03-31T08:27:24;15.10;;;13.32;;
70588;SDS011;58152;49.202;18.744;2023-03-31T08:29:50;17.80;;;14.82;;
70588;SDS011;58152;49.202;18.744;2023-03-31T08:32:15;20.73;;;14.25;;
70588;SDS011;58152;49.202;18.744;2023-03-31T08:34:41;17.40;;;14.63;;
70588;SDS011;58152;49.202;18.744;2023-03-31T08:37:07;17.77;;;14.48;;
70588;SDS011;58152;49.202;18.744;2023-03-31T08:39:33;15.55;;;13.80;;
70588;SDS011;58152;49.202;18.744;2023-03-31T08:44:54;18.38;;;15.30;;
70588;SDS011;58152;49.202;18.744;2023-03-31T08:47:24;18.00;;;14.43;;
70588;SDS011;58152;49.202;18.744;2023-03-31T08:49:55;16.33;;;14.40;;
70588;SDS011;58152;49.202;18.744;2023-03-31T08:55:21;14.55;;;12.45;;
70588;SDS011;58152;49.202;18.744;2023-03-31T09:06:00;15.27;;;11.88;;
70588;SDS011;58152;49.202;18.744;2023-03-31T09:24:43;11.82;;;9.32;;
70588;SDS011;58152;49.202;18.744;2023-03-31T09:27:18;10.95;;;9.82;;
70588;SDS011;58152;49.202;18.744;2023-03-31T09:32:14;11.43;;;8.93;;
70588;SDS011;58152;49.202;18.744;2023-03-31T09:34:44;9.80;;;7.70;;
70588;SDS011;58152;49.202;18.744;2023-03-31T09:37:11;8.82;;;7.93;;
70588;SDS011;58152;49.202;18.744;2023-03-31T09:39:39;9.75;;;7.80;;
70588;SDS011;58152;49.202;18.744;2023-03-31T09:42:05;9.35;;;7.68;;
70588;SDS011;58152;49.202;18.744;2023-03-31T09:44:38;8.45;;;7.00;;
70588;SDS011;58152;49.202;18.744;2023-03-31T09:47:08;9.68;;;8.40;;
70588;SDS011;58152;49.202;18.744;2023-03-31T09:49:56;10.38;;;8.10;;
70588;SDS011;58152;49.202;18.744;2023-03-31T09:52:26;9.15;;;7.72;;
70588;SDS011;58152;49.202;18.744;2023-03-31T09:54:52;13.10;;;8.75;;
70588;SDS011;58152;49.202;18.744;2023-03-31T09:57:38;12.20;;;8.93;;
70588;SDS011;58152;49.202;18.744;2023-03-31T10:02:38;13.75;;;10.38;;
70588;SDS011;58152;49.202;18.744;2023-03-31T10:05:32;14.85;;;10.98;;
70588;SDS011;58152;49.202;18.744;2023-03-31T10:10:54;12.52;;;11.15;;
70588;SDS011;58152;49.202;18.744;2023-03-31T10:13:22;10.77;;;9.68;;
70588;SDS011;58152;49.202;18.744;2023-03-31T10:15:51;13.30;;;9.55;;
70588;SDS011;58152;49.202;18.744;2023-03-31T10:18:18;12.32;;;8.90;;
70588;SDS011;58152;49.202;18.744;2023-03-31T10:20:50;11.52;;;8.38;;
70588;SDS011;58152;49.202;18.744;2023-03-31T10:23:17;10.45;;;7.70;;
70588;SDS011;58152;49.202;18.744;2023-03-31T10:25:50;9.48;;;7.50;;
70588;SDS011;58152;49.202;18.744;2023-03-31T10:28:18;9.90;;;6.50;;
70588;SDS011;58152;49.202;18.744;2023-03-31T10:30:48;8.65;;;6.40;;
70588;SDS011;58152;49.202;18.744;2023-03-31T10:33:17;8.77;;;6.43;;
70588;SDS011;58152;49.202;18.744;2023-03-31T10:35:47;8.82;;;6.63;;
70588;SDS011;58152;49.202;18.744;2023-03-31T10:38:16;11.45;;;7.38;;
70588;SDS011;58152;49.202;18.744;2023-03-31T10:40:50;9.23;;;7.00;;
70588;SDS011;58152;49.202;18.744;2023-03-31T10:43:19;9.68;;;6.43;;
70588;SDS011;58152;49.202;18.744;2023-03-31T10:45:55;8.07;;;5.82;;
70588;SDS011;58152;49.202;18.744;2023-03-31T10:50:49;9.45;;;6.10;;
70588;SDS011;58152;49.202;18.744;2023-03-31T10:53:15;6.82;;;5.38;;
70588;SDS011;58152;49.202;18.744;2023-03-31T11:01:05;7.00;;;4.47;;
70588;SDS011;58152;49.202;18.744;2023-03-31T11:03:41;8.57;;;6.40;;
70588;SDS011;58152;49.202;18.744;2023-03-31T11:06:12;6.35;;;4.57;;
70588;SDS011;58152;49.202;18.744;2023-03-31T11:17:25;7.20;;;3.95;;
70588;SDS011;58152;49.202;18.744;2023-03-31T11:19:59;5.97;;;3.50;;
70588;SDS011;58152;49.202;18.744;2023-03-31T11:30:12;6.20;;;1.80;;
70588;SDS011;58152;49.202;18.744;2023-03-31T11:33:24;3.70;;;2.15;;
70588;SDS011;58152;49.202;18.744;2023-03-31T11:41:09;3.47;;;1.40;;
70588;SDS011;58152;49.202;18.744;2023-03-31T11:43:42;3.72;;;1.63;;
70588;SDS011;58152;49.202;18.744;2023-03-31T11:51:57;3.35;;;1.60;;
70588;SDS011;58152;49.202;18.744;2023-03-31T11:54:34;1.90;;;1.58;;
70588;SDS011;58152;49.202;18.744;2023-03-31T11:57:09;4.60;;;1.55;;
70588;SDS011;58152;49.202;18.744;2023-03-31T11:59:40;2.35;;;1.45;;
70588;SDS011;58152;49.202;18.744;2023-03-31T12:04:50;4.07;;;2.08;;
70588;SDS011;58152;49.202;18.744;2023-03-31T12:09:57;2.92;;;1.85;;
70588;SDS011;58152;49.202;18.744;2023-03-31T12:12:32;3.72;;;2.08;;
70588;SDS011;58152;49.202;18.744;2023-03-31T12:15:12;3.30;;;1.77;;
70588;SDS011;58152;49.202;18.744;2023-03-31T12:17:46;4.30;;;2.13;;
70588;SDS011;58152;49.202;18.744;2023-03-31T12:20:28;1.60;;;1.50;;
70588;SDS011;58152;49.202;18.744;2023-03-31T12:22:58;3.40;;;1.65;;
70588;SDS011;58152;49.202;18.744;2023-03-31T12:25:29;6.05;;;1.80;;
70588;SDS011;58152;49.202;18.744;2023-03-31T12:28:12;2.67;;;1.60;;
70588;SDS011;58152;49.202;18.744;2023-03-31T12:30:38;7.20;;;1.63;;
70588;SDS011;58152;49.202;18.744;2023-03-31T12:36:06;1.48;;;1.30;;
70588;SDS011;58152;49.202;18.744;2023-03-31T12:38:36;3.15;;;1.60;;
70588;SDS011;58152;49.202;18.744;2023-03-31T12:41:22;5.25;;;2.17;;
70588;SDS011;58152;49.202;18.744;2023-03-31T12:59:40;2.55;;;1.38;;
70588;SDS011;58152;49.202;18.744;2023-03-31T13:04:41;2.67;;;1.13;;
70588;SDS011;58152;49.202;18.744;2023-03-31T13:09:46;2.88;;;1.30;;
70588;SDS011;58152;49.202;18.744;2023-03-31T13:12:20;4.90;;;1.45;;
70588;SDS011;58152;49.202;18.744;2023-03-31T13:14:49;1.95;;;0.98;;
70588;SDS011;58152;49.202;18.744;2023-03-31T13:19:55;3.53;;;1.00;;
70588;SDS011;58152;49.202;18.744;2023-03-31T13:22:39;1.77;;;0.90;;
70588;SDS011;58152;49.202;18.744;2023-03-31T13:27:53;2.72;;;1.00;;
70588;SDS011;58152;49.202;18.744;2023-03-31T13:30:54;1.45;;;0.85;;
70588;SDS011;58152;49.202;18.744;2023-03-31T13:44:07;4.35;;;1.00;;
70588;SDS011;58152;49.202;18.744;2023-03-31T13:47:03;2.70;;;0.95;;
70588;SDS011;58152;49.202;18.744;2023-03-31T14:06:26;2.85;;;1.50;;
70588;SDS011;58152;49.202;18.744;2023-03-31T14:09:01;3.47;;;1.20;;
70588;SDS011;58152;49.202;18.744;2023-03-31T14:11:31;4.10;;;1.38;;
70588;SDS011;58152;49.202;18.744;2023-03-31T14:13:58;2.92;;;0.93;;
70588;SDS011;58152;49.202;18.744;2023-03-31T14:16:46;2.90;;;1.20;;
70588;SDS011;58152;49.202;18.744;2023-03-31T14:21:44;3.17;;;1.23;;
70588;SDS011;58152;49.202;18.744;2023-03-31T14:24:24;3.85;;;1.58;;
70588;SDS011;58152;49.202;18.744;2023-03-31T14:35:30;1.60;;;1.17;;
70588;SDS011;58152;49.202;18.744;2023-03-31T14:38:03;1.75;;;1.25;;
70588;SDS011;58152;49.202;18.744;2023-03-31T14:40:34;1.25;;;0.98;;
70588;SDS011;58152;49.202;18.744;2023-03-31T14:43:16;5.70;;;1.92;;
70588;SDS011;58152;49.202;18.744;2023-03-31T14:45:44;2.53;;;1.15;;
70588;SDS011;58152;49.202;18.744;2023-03-31T14:48:10;3.08;;;1.85;;
70588;SDS011;58152;49.202;18.744;2023-03-31T14:50:40;3.25;;;1.95;;
70588;SDS011;58152;49.202;18.744;2023-03-31T14:53:18;2.60;;;1.73;;
70588;SDS011;58152;49.202;18.744;2023-03-31T14:55:47;5.90;;;2.30;;
70588;SDS011;58152;49.202;18.744;2023-03-31T14:58:16;4.80;;;3.42;;
70588;SDS011;58152;49.202;18.744;2023-03-31T15:00:49;5.00;;;2.40;;
70588;SDS011;58152;49.202;18.744;2023-03-31T15:03:17;4.38;;;1.77;;
70588;SDS011;58152;49.202;18.744;2023-03-31T15:05:42;4.57;;;2.35;;
70588;SDS011;58152;49.202;18.744;2023-03-31T15:08:11;3.50;;;1.77;;
70588;SDS011;58152;49.202;18.744;2023-03-31T15:10:41;3.47;;;1.45;;
70588;SDS011;58152;49.202;18.744;2023-03-31T15:13:21;3.55;;;2.00;;
70588;SDS011;58152;49.202;18.744;2023-03-31T15:15:50;4.97;;;2.55;;
70588;SDS011;58152;49.202;18.744;2023-03-31T15:18:15;4.20;;;1.88;;
70588;SDS011;58152;49.202;18.744;2023-03-31T15:20:42;3.67;;;1.77;;
70588;SDS011;58152;49.202;18.744;2023-03-31T15:23:19;3.72;;;2.20;;
70588;SDS011;58152;49.202;18.744;2023-03-31T15:25:50;4.25;;;1.83;;
70588;SDS011;58152;49.202;18.744;2023-03-31T15:28:22;2.97;;;2.28;;
70588;SDS011;58152;49.202;18.744;2023-03-31T15:30:55;2.55;;;1.52;;
70588;SDS011;58152;49.202;18.744;2023-03-31T15:33:23;3.95;;;2.13;;
70588;SDS011;58152;49.202;18.744;2023-03-31T15:35:55;3.38;;;1.95;;
70588;SDS011;58152;49.202;18.744;2023-03-31T15:38:24;2.40;;;1.60;;
70588;SDS011;58152;49.202;18.744;2023-03-31T15:40:59;3.33;;;1.88;;
70588;SDS011;58152;49.202;18.744;2023-03-31T15:43:47;2.70;;;1.70;;
70588;SDS011;58152;49.202;18.744;2023-03-31T15:49:20;2.78;;;2.30;;
70588;SDS011;58152;49.202;18.744;2023-03-31T15:51:48;2.42;;;1.73;;
70588;SDS011;58152;49.202;18.744;2023-03-31T15:56:55;2.20;;;1.67;;
70588;SDS011;58152;49.202;18.744;2023-03-31T15:59:42;3.70;;;2.25;;
70588;SDS011;58152;49.202;18.744;2023-03-31T16:02:24;3.13;;;2.00;;
70588;SDS011;58152;49.202;18.744;2023-03-31T16:04:56;2.47;;;1.67;;
70588;SDS011;58152;49.202;18.744;2023-03-31T16:07:24;2.28;;;1.95;;
70588;SDS011;58152;49.202;18.744;2023-03-31T16:09:59;4.65;;;2.25;;
70588;SDS011;58152;49.202;18.744;2023-03-31T16:12:32;5.20;;;2.08;;
70588;SDS011;58152;49.202;18.744;2023-03-31T16:17:45;2.45;;;1.77;;
70588;SDS011;58152;49.202;18.744;2023-03-31T16:20:28;3.55;;;2.10;;
70588;SDS011;58152;49.202;18.744;2023-03-31T16:23:02;3.13;;;2.17;;
70588;SDS011;58152;49.202;18.744;2023-03-31T16:25:38;3.60;;;2.65;;
70588;SDS011;58152;49.202;18.744;2023-03-31T16:28:05;5.90;;;3.15;;
70588;SDS011;58152;49.202;18.744;2023-03-31T16:30:40;3.95;;;2.45;;
70588;SDS011;58152;49.202;18.744;2023-03-31T16:33:08;3.90;;;2.63;;
70588;SDS011;58152;49.202;18.744;2023-03-31T16:35:36;3.60;;;2.30;;
70588;SDS011;58152;49.202;18.744;2023-03-31T16:38:05;2.80;;;2.25;;
70588;SDS011;58152;49.202;18.744;2023-03-31T16:40:36;4.05;;;2.40;;
70588;SDS011;58152;49.202;18.744;2023-03-31T16:43:15;2.63;;;2.25;;
70588;SDS011;58152;49.202;18.744;2023-03-31T16:45:46;1.90;;;1.73;;
70588;SDS011;58152;49.202;18.744;2023-03-31T16:48:14;7.07;;;4.00;;
70588;SDS011;58152;49.202;18.744;2023-03-31T16:50:41;4.28;;;3.38;;
70588;SDS011;58152;49.202;18.744;2023-03-31T16:53:07;5.05;;;3.17;;
70588;SDS011;58152;49.202;18.744;2023-03-31T16:55:33;5.07;;;2.90;;
70588;SDS011;58152;49.202;18.744;2023-03-31T16:57:59;4.60;;;2.90;;
70588;SDS011;58152;49.202;18.744;2023-03-31T17:00:30;4.93;;;3.05;;
70588;SDS011;58152;49.202;18.744;2023-03-31T17:02:58;7.45;;;4.25;;
70588;SDS011;58152;49.202;18.744;2023-03-31T17:05:25;5.25;;;3.60;;
70588;SDS011;58152;49.202;18.744;2023-03-31T17:07:52;3.50;;;2.60;;
70588;SDS011;58152;49.202;18.744;2023-03-31T17:10:17;4.10;;;2.80;;
70588;SDS011;58152;49.202;18.744;2023-03-31T17:12:43;4.85;;;3.13;;
70588;SDS011;58152;49.202;18.744;2023-03-31T17:15:08;2.95;;;2.22;;
70588;SDS011;58152;49.202;18.744;2023-03-31T17:17:35;2.85;;;2.55;;
70588;SDS011;58152;49.202;18.744;2023-03-31T17:20:00;4.05;;;2.95;;
70588;SDS011;58152;49.202;18.744;2023-03-31T17:22:30;4.10;;;2.78;;
70588;SDS011;58152;49.202;18.744;2023-03-31T17:24:56;3.67;;;2.65;;
70588;SDS011;58152;49.202;18.744;2023-03-31T17:27:25;3.83;;;2.85;;
70588;SDS011;58152;49.202;18.744;2023-03-31T17:29:52;4.68;;;3.70;;
70588;SDS011;58152;49.202;18.744;2023-03-31T17:32:18;3.90;;;2.60;;
70588;SDS011;58152;49.202;18.744;2023-03-31T17:34:45;3.08;;;2.58;;
70588;SDS011;58152;49.202;18.744;2023-03-31T17:37:13;5.10;;;2.95;;
70588;SDS011;58152;49.202;18.744;2023-03-31T17:39:41;6.13;;;3.40;;
70588;SDS011;58152;49.202;18.744;2023-03-31T17:42:07;4.72;;;3.08;;
70588;SDS011;58152;49.202;18.744;2023-03-31T17:44:37;4.97;;;3.22;;